Historyczne dane pomiarowe

Dodano dane terminowe – wersja testowa.

Dane z okresu 1951-2019

Wersja bazy: 1.34 [2019-03-16, lista zmian], aktualizacja planowana na 2019-04-15

Dane meteo z obszaru Polski uzyskane na podstawie danych udostępnionych przez Instytut Meteorologii i Gospodarki Wodnej – Państwowy Instytut Badawczy.

 

Wybierz Datę:    

       

TemperaturaWilgotnośćWiatrCiśnienieOpadyŚniegCzas trwania zjawisk
 Stacja t tx tn tng RH VA  wxwx mslp ppp RRR   cm mm wxwxwxwxwxwxwx
1961-08-14 12.7 18.4 5.6- 83.5- 2.3 0.3---- 0.0------------
1961-08-13 13.7 15.5 12.7- 84.3- 7.7 3.3---- 10.5------------
1961-08-12 16.7 21.9 14.3- 90.8- 6.3 1.7---- 15.5------------
1961-08-11 20.0 28.6 17.1- 89.5- 3.0 1.7---- 4.9------------
1961-08-10 23.5 28.2 18.0- 83.0- 0.7 2.0---- 0.0------------
1961-08-09 21.3 27.5 13.0- 82.3- 5.7 0.7---- 1.6------------
1961-08-08 17.0 22.2 15.7- 88.8- 5.0 1.3---- 0.0------------
1961-08-07 20.8 26.6 13.8- 75.5- 4.7 1.3---- 1.4------------
1961-08-06 22.3 30.2 12.7- 69.8- 0.3 2.3---- 0.0------------
1961-08-05 18.0 23.9 14.9- 77.0- 3.3 1.0---- 0.0------------
1961-08-04 16.0 20.1 5.9- 68.5- 4.3 2.3---- 0.0------------
1961-08-03 15.9 21.3 11.9- 82.0- 6.0 2.7---- 0.0------------
1961-08-02 18.7 26.1 7.2- 74.0- 1.7 3.3---- 0.0------------
1961-08-01 13.8 20.2 11.3- 80.5- 3.7 2.7---- 0.0------------
1961-07-31 12.2 13.7 11.1- 96.8- 8.0 3.3---- 14.4------------
1961-07-30 11.7 12.5 11.0- 95.3- 8.0 3.3---- 15.2------------
1961-07-29 13.2 18.0 11.9- 87.5- 7.7 2.0---- 1.1------------
1961-07-28 18.7 25.3 15.5- 82.8- 7.3 1.7---- 15.0------------
1961-07-27 19.8 25.4 11.9- 69.3- 5.7 2.3---- 0.1------------
1961-07-26 16.9 22.3 9.3- 66.8- 7.3 2.3---- 0.0------------
1961-07-25 13.7 16.0 10.5- 78.0- 7.7 2.3---- 0.0------------
1961-07-24 14.1 17.1 12.1- 74.3- 7.0 2.3---- 0.0------------
1961-07-23 14.2 19.0 10.9- 79.8- 5.3 2.0---- 0.0------------
1961-07-22 14.6 18.5 10.4- 87.3- 7.3 3.7---- 5.4------------
1961-07-21 14.5 16.9 10.4- 84.5- 7.3 3.3---- 5.4------------
1961-07-20 12.8 20.2 6.3- 94.3- 6.7 1.3---- 10.4------------
1961-07-19 12.5 17.5 9.4- 94.0- 6.3 0.3---- 14.1------------
1961-07-18 13.6 18.4 10.8- 86.0- 7.0 2.3---- 3.1------------
1961-07-17 14.6 21.2 10.7- 74.8- 3.0 2.3---- 3.1------------
1961-07-16 15.0 20.7 12.1- 91.8- 5.7 2.0---- 1.9------------
1961-07-15 17.0 23.7 10.0- 78.8- 5.0 1.3---- 14.9------------
1961-07-14 13.5 18.3 11.5- 79.0- 4.0 2.0---- 0.1------------
1961-07-13 19.8 28.8 12.7- 83.0- 4.3 3.7---- 27.7------------
1961-07-12 19.3 26.7 9.2- 84.8- 3.7 2.0---- 2.1------------
1961-07-11 14.2 20.5 5.9- 77.3- 5.7 1.7---- 8.4------------
1961-07-10 12.8 18.2 9.6- 75.3- 5.7 3.3---- 0.2------------
1961-07-09 13.8 21.1 6.2- 81.3- 3.7 4.3---- 2.1------------
1961-07-08 12.9 20.7 3.1- 75.0- 1.3 0.7---- 0.0------------
1961-07-07 11.5 16.7 9.0- 80.8- 7.0 1.3---- 0.0------------
1961-07-06 11.9 15.1 5.1- 74.8- 6.0 3.0---- 1.1------------
1961-07-05 13.2 17.4 10.0- 67.3- 4.0 4.0---- 0.0------------
1961-07-04 20.0 28.4 15.9- 76.0- 6.0 3.3---- 0.9------------
1961-07-03 23.7 31.1 10.0- 58.5- 1.0 2.0---- 0.0------------
1961-07-02 19.5 29.6 8.1- 71.0- 0.0 1.0---- 0.0------------
1961-07-01 19.3 26.8 8.5- 73.3- 0.3 1.0---- 0.0------------
1961-06-30 16.9 24.1 6.6- 77.3- 1.3 1.3---- 0.0------------
1961-06-29 14.1 19.5 7.5- 78.0- 2.7 1.3---- 0.0------------
1961-06-28 13.2 19.8 11.5- 78.5- 5.0 3.3---- 0.4------------
1961-06-27 22.9 32.2 14.4- 78.3- 4.0 3.0---- 34.4------------
1961-06-26 22.4 29.8 11.0- 76.8- 3.7 1.3---- 4.7------------
1961-06-25 20.3 29.3 8.3- 67.3- 0.0 1.3---- 0.0------------
1961-06-24 17.8 23.9 7.6- 69.3- 2.7 2.7---- 0.0------------
1961-06-23 17.5 23.5 15.5- 73.0- 5.0 3.3---- 0.0------------
1961-06-22 16.5 24.2 6.1- 75.5- 7.0 1.7---- 3.1------------
1961-06-21 17.2 24.0 2.4- 63.0- 2.3 3.3---- 0.0------------
324.2 ms

 

Źródłem pochodzenia danych jest Instytut Meteorologii i Gospodarki Wodnej – Państwowy Instytut Badawczy. Dane Instytutu Meteorologii i Gospodarki Wodnej – Państwowego Instytutu Badawczego zostały przetworzone.

Dane źródłowe można odnaleźć na stronie https://dane.imgw.pl